Aviation Digital Data Service (ADDS)

Output produced by METARs form (0745 UTC 28 February 2017)
found at http://aviationweather.gov/adds/metars/
 
KRUT 280521Z 2806/0106 22005KT P6SM BKN080 
     FM281400 15007KT P6SM BKN080 BKN200 
     FM282200 14010G18KT P6SM VCSH OVC050 
     FM010000 15012G20KT 5SM -SHRA BR OVC035